MSC Alexa — 3FPP6 — position and weather

sailwx.info

Track history (hours):
 
Tides and Currents Weather Stations Pressure Air Temp Water Temp Dewpoint Dewpoint Depression Visibility Wind Speed Wind Dir Waves Ship Positions

MSC Alexa

Last reported at 2015-Feb-02 03:33 UTC. Time now 2015-Mar-02 01:01 UTC.
Position N 29°27' W 094°50'.
Warning: this ship's position is 27 days out of date.

Length 243 m; draft 9.8 m.

Type: Ship (hazmat cat D). MMSI: 356904000.

Date/timePositionNaut miles runAvg speedWind from/ knotsBaromVisibWave heightAir tempDewpointWater temp
2015-Feb-02 03:33N 29°27' W 094°50'1211.8
2015-Feb-02 02:33N 29°37' W 094°57'3 2.5
2015-Feb-02 01:31N 29°37' W 095°00'0 0.0
2015-Feb-02 00:31N 29°37' W 095°00'0 0.0
2015-Feb-01 23:33N 29°37' W 095°00'0 0.0
2015-Feb-01 22:33N 29°37' W 095°00'0 0.0
2015-Feb-01 21:32N 29°37' W 095°00'0 0.0
2015-Feb-01 20:32N 29°37' W 095°00'0 0.0
2015-Feb-01 19:32N 29°37' W 095°00'0 0.0
2015-Feb-01 18:31N 29°37' W 095°00'0 0.0
2015-Feb-01 17:31N 29°37' W 095°00'0 0.0
2015-Feb-01 16:33N 29°37' W 095°00'0 0.0
2015-Feb-01 15:33N 29°37' W 095°00'0 0.0
2015-Feb-01 14:32N 29°37' W 095°00'0 0.0
2015-Feb-01 13:32N 29°37' W 095°00'0 0.0
2015-Feb-01 12:32N 29°37' W 095°00'0 0.0
2015-Feb-01 11:31N 29°37' W 095°00'0 0.0
2015-Feb-01 10:31N 29°37' W 095°00'0 0.0
2015-Feb-01 09:33N 29°37' W 095°00'0 0.0
2015-Feb-01 08:33N 29°37' W 095°00'0 0.0
2015-Feb-01 07:32N 29°37' W 095°00'0 0.0
2015-Feb-01 06:32N 29°37' W 095°00'0 0.0
2015-Feb-01 05:32N 29°37' W 095°00'0 0.0
2015-Feb-01 04:31N 29°37' W 095°00'0 0.0
2015-Feb-01 03:31N 29°37' W 095°00'0 0.0
2015-Feb-01 02:33N 29°37' W 095°00'0 0.0
2015-Feb-01 01:30N 29°37' W 095°00'0 0.0
2015-Feb-01 00:32N 29°37' W 095°00'0 0.0
2015-Jan-31 23:32N 29°37' W 095°00'0 0.0
2015-Jan-31 22:32N 29°37' W 095°00'0 0.0
2015-Jan-31 21:31N 29°37' W 095°00'0 0.0
2015-Jan-31 20:31N 29°37' W 095°00'0 0.0
2015-Jan-31 19:33N 29°37' W 095°00'0 0.0
2015-Jan-31 18:33N 29°37' W 095°00'0 0.0
2015-Jan-31 17:32N 29°37' W 095°00'0 0.0
2015-Jan-31 16:32N 29°37' W 095°00'1 0.5
2015-Jan-31 15:33N 29°37' W 095°01'6 5.9
2015-Jan-31 14:34N 29°34' W 094°55'1312.2
2015-Jan-31 13:28N 29°22' W 094°48'17 8.6
2015-Jan-31 11:32N 29°18' W 094°30'  
2015-Jan-28 02:33N 20°48' W 096°41'2015.4
2015-Jan-28 01:13N 20°30' W 096°32'4715.1
2015-Jan-27 22:06N 19°46' W 096°11'815.1
2015-Jan-27 21:33N 19°39' W 096°07'1514.9
2015-Jan-27 20:33N 19°25' W 096°01'1313.1
2015-Jan-27 19:33N 19°12' W 096°01'6 6.2
2015-Jan-27 18:33N 19°13' W 096°08'0 0.0
2015-Jan-27 17:33N 19°13' W 096°08'0 0.0
2015-Jan-27 16:33N 19°13' W 096°08'0 0.0
2015-Jan-27 15:32N 19°13' W 096°08'0 0.0
2015-Jan-27 14:32N 19°13' W 096°08'0 0.0
2015-Jan-27 13:31N 19°13' W 096°08'0 0.0
2015-Jan-27 12:33N 19°13' W 096°08'7 7.3
2015-Jan-27 11:33N 19°12' W 096°00'1512.7
2015-Jan-27 10:22N 19°15' W 095°45'  
Track history (hours):
 
Tides and Currents Weather Stations Pressure Air Temp Water Temp Dewpoint Dewpoint Depression Visibility Wind Speed Wind Dir Waves Ship Positions

MSC Alexa

Last reported at 2015-Feb-02 03:33 UTC. Time now 2015-Mar-02 01:01 UTC.
Position N 29°27' W 094°50'.
Warning: this ship's position is 27 days out of date.

Length 243 m; draft 9.8 m.

Type: Ship (hazmat cat D). MMSI: 356904000.

Date/timePositionNaut miles runAvg speedWind from/ knotsBaromVisibWave heightAir tempDewpointWater temp
2015-Feb-02 03:33N 29°27' W 094°50'1211.8
2015-Feb-02 02:33N 29°37' W 094°57'3 2.5
2015-Feb-02 01:31N 29°37' W 095°00'0 0.0
2015-Feb-02 00:31N 29°37' W 095°00'0 0.0
2015-Feb-01 23:33N 29°37' W 095°00'0 0.0
2015-Feb-01 22:33N 29°37' W 095°00'0 0.0
2015-Feb-01 21:32N 29°37' W 095°00'0 0.0
2015-Feb-01 20:32N 29°37' W 095°00'0 0.0
2015-Feb-01 19:32N 29°37' W 095°00'0 0.0
2015-Feb-01 18:31N 29°37' W 095°00'0 0.0
2015-Feb-01 17:31N 29°37' W 095°00'0 0.0
2015-Feb-01 16:33N 29°37' W 095°00'0 0.0
2015-Feb-01 15:33N 29°37' W 095°00'0 0.0
2015-Feb-01 14:32N 29°37' W 095°00'0 0.0
2015-Feb-01 13:32N 29°37' W 095°00'0 0.0
2015-Feb-01 12:32N 29°37' W 095°00'0 0.0
2015-Feb-01 11:31N 29°37' W 095°00'0 0.0
2015-Feb-01 10:31N 29°37' W 095°00'0 0.0
2015-Feb-01 09:33N 29°37' W 095°00'0 0.0
2015-Feb-01 08:33N 29°37' W 095°00'0 0.0
2015-Feb-01 07:32N 29°37' W 095°00'0 0.0
2015-Feb-01 06:32N 29°37' W 095°00'0 0.0
2015-Feb-01 05:32N 29°37' W 095°00'0 0.0
2015-Feb-01 04:31N 29°37' W 095°00'0 0.0
2015-Feb-01 03:31N 29°37' W 095°00'0 0.0
2015-Feb-01 02:33N 29°37' W 095°00'0 0.0
2015-Feb-01 01:30N 29°37' W 095°00'0 0.0
2015-Feb-01 00:32N 29°37' W 095°00'0 0.0
2015-Jan-31 23:32N 29°37' W 095°00'0 0.0
2015-Jan-31 22:32N 29°37' W 095°00'0 0.0
2015-Jan-31 21:31N 29°37' W 095°00'0 0.0
2015-Jan-31 20:31N 29°37' W 095°00'0 0.0
2015-Jan-31 19:33N 29°37' W 095°00'0 0.0
2015-Jan-31 18:33N 29°37' W 095°00'0 0.0
2015-Jan-31 17:32N 29°37' W 095°00'0 0.0
2015-Jan-31 16:32N 29°37' W 095°00'1 0.5
2015-Jan-31 15:33N 29°37' W 095°01'6 5.9
2015-Jan-31 14:34N 29°34' W 094°55'1312.2
2015-Jan-31 13:28N 29°22' W 094°48'17 8.6
2015-Jan-31 11:32N 29°18' W 094°30'  
2015-Jan-28 02:33N 20°48' W 096°41'2015.4
2015-Jan-28 01:13N 20°30' W 096°32'4715.1
2015-Jan-27 22:06N 19°46' W 096°11'815.1
2015-Jan-27 21:33N 19°39' W 096°07'1514.9
2015-Jan-27 20:33N 19°25' W 096°01'1313.1
2015-Jan-27 19:33N 19°12' W 096°01'6 6.2
2015-Jan-27 18:33N 19°13' W 096°08'0 0.0
2015-Jan-27 17:33N 19°13' W 096°08'0 0.0
2015-Jan-27 16:33N 19°13' W 096°08'0 0.0
2015-Jan-27 15:32N 19°13' W 096°08'0 0.0
2015-Jan-27 14:32N 19°13' W 096°08'0 0.0
2015-Jan-27 13:31N 19°13' W 096°08'0 0.0
2015-Jan-27 12:33N 19°13' W 096°08'7 7.3
2015-Jan-27 11:33N 19°12' W 096°00'1512.7
2015-Jan-27 10:22N 19°15' W 095°45'  

Dump ship's entire track history